Flight Track Log - Related Links

Times and Time Zones

All times are in EDT time to prevent confusion due to time zone crossing. See the UAL252 flight status page for this flight to view local times or setup timezone preferences in your user account.

Time Position Orientation Groundspeed Altitude Reporting Facility
EDT Latitude Longitude Course Direction KTS MPH feet Rate Location/Type
Sat 09:20:17 AM 40.7200 -74.1333 207° Southwest 164 189 2,100  Level New Center
Sat 09:20:32 AM 40.7333 -74.1167 43° Northeast 180 207 2,600 1,920 Climbing New TRACON
Sat 09:21:32 AM 40.7667 -74.1333 339° North 222 255 4,500 2,650 Climbing New TRACON
Sat 09:22:32 AM 40.7167 -74.1833 217° Southwest 245 282 7,900 3,850 Climbing New TRACON
Sat 09:23:32 AM 40.6500 -74.2333 210° Southwest 369 425 12,200 3,050 Climbing New TRACON
Sat 09:24:00 AM 40.1077 -74.2045 201° Southwest  Level FlightAware
Sat 09:24:32 AM 40.5667 -74.2667 197° South 303 349 14,000  Level New TRACON
Sat 09:25:00 AM 39.9931 -74.2546 207° Southwest  Level FlightAware
Sat 09:26:17 AM 40.3931 -74.2019 164° South 367 422 17,100  Level New Center
Sat 09:27:18 AM 40.2919 -74.1697 166° South 410 472 18,000 1,510 Climbing New Center
Sat 09:28:40 AM 40.1244 -74.2186 193° South 425 489 20,700 1,804 Climbing Washington Center
Sat 09:29:41 AM 40.0317 -74.3125 218° Southwest 407 468 22,300 1,563 Climbing Washington Center
Sat 09:30:39 AM 39.9431 -74.4117 221° Southwest 413 475 23,800 1,462 Climbing Washington Center
Sat 09:31:40 AM 39.8483 -74.5186 221° Southwest 435 501 25,200 1,339 Climbing Washington Center
Sat 09:32:40 AM 39.7553 -74.6200 220° Southwest 448 516 26,500 1,289 Climbing Washington Center
Sat 09:33:41 AM 39.6603 -74.7236 220° Southwest 453 521 27,800 1,059 Climbing Washington Center
Sat 09:34:39 AM 39.5817 -74.8081 220° Southwest 453 521 28,600 1,109 Climbing Washington Center
Sat 09:35:40 AM 39.4761 -74.9247 220° Southwest 453 521 30,000 1,488 Climbing Washington Center
Sat 09:36:40 AM 39.3808 -75.0250 219° Southwest 453 521 31,600 1,289 Climbing Washington Center
Sat 09:37:41 AM 39.2708 -75.1036 209° Southwest 446 513 32,600 1,041 Climbing Washington Center
Sat 09:38:41 AM 39.1586 -75.1794 208° Southwest 451 519 33,700 1,091 Climbing Washington Center
Sat 09:39:42 AM 39.0483 -75.2494 206° Southwest 456 525 34,800 958 Climbing Washington Center
Sat 09:40:40 AM 38.9358 -75.3219 207° Southwest 451 519 35,600 615 Climbing Washington Center
Sat 09:41:39 AM 38.8275 -75.3972 208° Southwest 451 519 36,000 202 Climbing Washington Center
Sat 09:42:39 AM 38.7172 -75.4719 208° Southwest 451 519 36,000  Level Washington Center
Sat 09:43:41 AM 38.6047 -75.5411 206° Southwest 451 519 36,000  Level Washington Center
Sat 09:44:39 AM 38.4964 -75.6131 207° Southwest 451 519 36,000  Level Washington Center
Sat 09:45:39 AM 38.3858 -75.6844 207° Southwest 451 519 36,000  Level Washington Center
Sat 09:46:39 AM 38.2731 -75.7558 206° Southwest 451 519 36,000  Level Washington Center
Sat 09:47:40 AM 38.1644 -75.8267 207° Southwest 451 519 36,000  Level Washington Center
Sat 09:48:41 AM 38.0561 -75.8950 206° Southwest 446 513 36,000  Level Washington Center
Sat 09:49:41 AM 37.9453 -75.9656 207° Southwest 446 513 36,000  Level Washington Center
Sat 09:50:39 AM 37.8367 -76.0361 207° Southwest 446 513 36,000  Level Washington Center
Sat 09:51:39 AM 37.7300 -76.1117 209° Southwest 446 513 36,000  Level Washington Center
Sat 09:52:40 AM 37.6192 -76.1764 205° Southwest 446 513 36,000  Level Washington Center
Sat 09:53:41 AM 37.5103 -76.2464 207° Southwest 446 513 36,000  Level Washington Center
Sat 09:54:40 AM 37.3994 -76.3133 206° Southwest 446 513 36,000  Level Washington Center
Sat 09:55:40 AM 37.2906 -76.3803 206° Southwest 446 513 36,000  Level Washington Center
Sat 09:56:41 AM 37.1814 -76.4494 207° Southwest 446 513 36,000  Level Washington Center
Sat 09:57:41 AM 37.0747 -76.5186 207° Southwest 446 513 36,000  Level Washington Center
Sat 09:58:39 AM 36.9636 -76.5875 206° Southwest 446 513 36,000  Level Washington Center
Sat 09:59:40 AM 36.8564 -76.6561 207° Southwest 446 513 36,000  Level Washington Center
Sat 10:00:41 AM 36.7453 -76.7247 206° Southwest 446 513 36,000  Level Washington Center
Sat 10:01:39 AM 36.6278 -76.8006 207° Southwest 441 507 36,000  Level Washington Center
Sat 10:02:40 AM 36.5269 -76.8586 205° Southwest 441 507 36,000 -49 Level Washington Center
Sat 10:03:41 AM 36.4094 -76.9314 206° Southwest 441 507 35,900  Descending Washington Center
Sat 10:04:41 AM 36.2981 -76.9992 206° Southwest 441 507 36,000  Climbing Washington Center
Sat 10:05:41 AM 36.1886 -77.0667 206° Southwest 441 507 35,900  Descending Washington Center
Sat 10:06:39 AM 36.0814 -77.1314 206° Southwest 441 507 36,000 102 Climbing Washington Center
Sat 10:07:39 AM 35.9869 -77.1911 207° Southwest 430 495 36,100  Climbing Washington Center
Sat 10:08:39 AM 35.8917 -77.2792 217° Southwest 430 495 36,000 -50 Descending Washington Center
Sat 10:09:40 AM 35.8008 -77.3694 219° Southwest 430 495 36,000  Level Washington Center
Sat 10:10:39 AM 35.7075 -77.4594 218° Southwest 430 495 36,000 50 Level Washington Center
Sat 10:11:40 AM 35.6122 -77.5464 217° Southwest 430 495 36,100  Climbing Washington Center
Sat 10:12:40 AM 35.5189 -77.6361 218° Southwest 430 495 36,000 -50 Descending Washington Center
Sat 10:13:40 AM 35.4256 -77.7203 216° Southwest 424 488 36,000  Level Washington Center
Sat 10:14:41 AM 35.3322 -77.8094 218° Southwest 424 488 36,000  Level Washington Center
Sat 10:15:39 AM 35.2386 -77.8986 218° Southwest 429 494 36,000  Level Washington Center
Sat 10:16:40 AM 35.1472 -77.9850 218° Southwest 424 488 36,000  Level Washington Center
Sat 10:17:41 AM 35.0536 -78.0733 218° Southwest 424 488 36,000  Level Washington Center
Sat 10:18:39 AM 34.9622 -78.1594 218° Southwest 424 488 36,000  Level Washington Center
Sat 10:19:40 AM 34.8706 -78.2450 217° Southwest 424 488 36,000 -50 Level Washington Center
Sat 10:20:40 AM 34.7661 -78.3478 219° Southwest 435 501 35,900 31 Descending Washington Center
Sat 10:22:52 AM 34.5661 -78.5258 216° Southwest 417 480 36,100 31 Climbing Jacksonville Center
Sat 10:23:52 AM 34.4633 -78.6292 220° Southwest 425 489 36,000 -50 Descending Jacksonville Center
Sat 10:24:52 AM 34.3703 -78.7142 217° Southwest 430 495 36,000 -50 Level Jacksonville Center
Sat 10:25:52 AM 34.2750 -78.7992 216° Southwest 430 495 35,900  Descending Jacksonville Center
Sat 10:26:52 AM 34.1897 -78.8786 218° Southwest 437 503 36,000 50 Climbing Jacksonville Center
Sat 10:27:52 AM 34.0964 -78.9631 217° Southwest 437 503 36,000 -50 Level Jacksonville Center
Sat 10:28:52 AM 34.0031 -79.0475 217° Southwest 432 497 35,900 -50 Descending Jacksonville Center
Sat 10:29:52 AM 33.9097 -79.1317 217° Southwest 427 491 35,900 50 Level Jacksonville Center
Sat 10:30:52 AM 33.8142 -79.2156 216° Southwest 427 491 36,000 50 Climbing Jacksonville Center
Sat 10:31:52 AM 33.7206 -79.2994 217° Southwest 427 491 36,000  Level Jacksonville Center
Sat 10:32:52 AM 33.6228 -79.3808 215° Southwest 419 482 36,000  Level Jacksonville Center
Sat 10:33:52 AM 33.5050 -79.4278 198° South 424 488 36,000  Level Jacksonville Center
Sat 10:34:52 AM 33.3917 -79.4769 200° South 430 495 36,000  Level Jacksonville Center
Sat 10:35:52 AM 33.2761 -79.5286 200° South 436 502 36,000  Level Jacksonville Center
Sat 10:36:52 AM 33.1606 -79.5753 199° South 441 507 36,000  Level Jacksonville Center
Sat 10:37:52 AM 33.0469 -79.6214 199° South 441 507 36,000  Level Jacksonville Center
Sat 10:38:52 AM 32.9314 -79.6703 200° South 441 507 36,000  Level Jacksonville Center
Sat 10:39:52 AM 32.8156 -79.7189 199° South 441 507 36,000  Level Jacksonville Center
Sat 10:40:52 AM 32.7000 -79.7672 199° South 441 507 36,000  Level Jacksonville Center
Sat 10:41:52 AM 32.5986 -79.8103 200° South 441 507 36,000  Level Jacksonville Center
Sat 10:42:52 AM 32.4850 -79.8561 199° South 441 507 36,000  Level Jacksonville Center
Sat 10:43:52 AM 32.3692 -79.9042 199° South 441 507 36,000  Level Jacksonville Center
Sat 10:44:52 AM 32.2556 -79.9519 200° South 441 507 36,000  Level Jacksonville Center
Sat 10:45:52 AM 32.1397 -79.9975 198° South 441 507 36,000  Level Jacksonville Center
Sat 10:46:52 AM 32.0236 -80.0331 195° South 441 507 36,000  Level Jacksonville Center
Sat 10:47:52 AM 31.9031 -80.0589 190° South 441 507 36,000  Level Jacksonville Center
Sat 10:48:52 AM 31.7806 -80.0819 189° South 441 507 36,000  Level Jacksonville Center
Sat 10:49:52 AM 31.6600 -80.1053 189° South 446 513 36,000  Level Jacksonville Center
Sat 10:50:52 AM 31.5372 -80.1308 190° South 446 513 36,000  Level Jacksonville Center
Sat 10:51:52 AM 31.4128 -80.1614 192° South 446 513 36,000  Level Jacksonville Center
Sat 10:52:52 AM 31.2942 -80.1842 189° South 446 513 36,000  Level Jacksonville Center
Sat 10:53:52 AM 31.1653 -80.2050 188° South 451 519 36,000  Level Jacksonville Center
Sat 10:54:52 AM 31.0403 -80.2303 190° South 464 534 36,000 -50 Level Jacksonville Center
Sat 10:55:52 AM 30.9114 -80.2558 190° South 470 541 35,900  Descending Jacksonville Center
Sat 10:56:52 AM 30.7867 -80.2786 189° South 464 534 36,000  Climbing Jacksonville Center
Sat 10:57:52 AM 30.6597 -80.3014 189° South 464 534 35,900  Descending Jacksonville Center
Sat 10:58:52 AM 30.5308 -80.3267 190° South 469 540 36,000 50 Climbing Jacksonville Center
Sat 10:59:52 AM 30.4000 -80.3542 190° South 469 540 36,000  Level Jacksonville Center
Sat 11:00:52 AM 30.2708 -80.3769 189° South 469 540 36,000  Level Jacksonville Center
Sat 11:01:52 AM 30.1442 -80.4042 191° South 474 545 36,000 -50 Level Jacksonville Center
Sat 11:02:52 AM 30.0153 -80.4292 190° South 469 540 35,900  Descending Jacksonville Center
Sat 11:03:52 AM 29.8883 -80.4539 190° South 463 533 36,000 50 Climbing Jacksonville Center
Sat 11:04:52 AM 29.7614 -80.4786 190° South 468 539 36,000  Level Jacksonville Center
Sat 11:05:52 AM 29.6325 -80.5033 189° South 468 539 36,000  Level Jacksonville Center
Sat 11:07:03 AM 29.4700 -80.5311 188° South 457 526 36,000  Level Miami Center
Sat 11:08:03 AM 29.3439 -80.5625 192° South 457 526 36,000  Level Miami Center
Sat 11:09:03 AM 29.2161 -80.5869 189° South 467 537 36,000  Level Miami Center
Sat 11:10:03 AM 29.0883 -80.6111 189° South 467 537 36,000  Level Miami Center
Sat 11:11:03 AM 28.9606 -80.6328 188° South 467 537 36,000  Level Miami Center
Sat 11:12:03 AM 28.8367 -80.6547 189° South 462 532 36,000  Level Miami Center
Sat 11:13:03 AM 28.7075 -80.6525 179° South 467 537 36,000 -450 Level Miami Center
Sat 11:14:03 AM 28.5817 -80.5939 158° South 463 533 35,100 -1,850 Descending Miami Center
Sat 11:15:03 AM 28.4692 -80.5144 148° Southeast 473 544 32,300 450 Descending Miami Center
Sat 11:16:03 AM 28.3564 -80.4283 146° Southeast 486 559 36,000 -3,800 Climbing Miami Center
Sat 11:17:03 AM 28.2433 -80.3564 151° Southeast 481 554 24,700 -7,000 Descending Miami Center
Sat 11:18:03 AM 28.1211 -80.3244 167° South 460 529 22,000 -2,550 Descending Miami Center
Sat 11:19:03 AM 28.0006 -80.2972 169° South 450 518 19,600 -2,400 Descending Miami Center
Sat 11:20:03 AM 27.8825 -80.2678 168° South 444 511 17,200 -2,200 Descending Miami Center
Sat 11:21:03 AM 27.7786 -80.2458 169° South 432 497 15,200 -2,100 Descending Miami Center
Sat 11:22:03 AM 27.6581 -80.2167 168° South 417 480 13,000 -2,050 Descending Miami Center
Sat 11:23:03 AM 27.5503 -80.1922 169° South 406 467 11,100 -1,500 Descending Miami Center
Sat 11:24:03 AM 27.4464 -80.1683 168° South 391 450 10,000 -550 Descending Miami Center
Sat 11:25:03 AM 27.3675 -80.1497 168° South 351 404 10,000 -50 Level Miami Center
Sat 11:26:03 AM 27.2800 -80.1353 172° South 328 377 9,900 -300 Descending Miami Center
Sat 11:27:03 AM 27.1861 -80.1303 177° South 312 359 9,400 -900 Descending Miami Center
Sat 11:28:03 AM 27.1069 -80.1258 177° South 306 352 8,100 -1,400 Descending Miami Center
Sat 11:29:03 AM 27.0256 -80.1283 182° South 301 346 6,600 -1,400 Descending Miami Center
Sat 11:30:03 AM 26.9636 -80.0939 154° Southeast 274 315 5,300 -1,250 Descending Miami Center
Sat 11:31:03 AM 26.8958 -80.1339 208° Southwest 258 297 4,100 -700 Descending Miami Center
Sat 11:32:03 AM 26.8275 -80.1947 218° Southwest 275 316 3,900 -550 Descending Miami Center
Sat 11:33:03 AM 26.7578 -80.2369 208° Southwest 292 336 3,000 -900 Descending Miami Center

Login

Don't have an account? Register now (free) for customized features, flight alerts, and more!